Map

Track Data

SID SEASON NUMBER BASIN SUBBASIN NAME ISO_TIME NATURE LAT LON WMO_WIND WMO_PRES WMO_AGENCY TRACK_TYPE DIST2LAND LANDFALL IFLAG USA_AGENCY USA_ATCF_ID USA_LAT USA_LON USA_RECORD USA_STATUS USA_WIND USA_PRES USA_SSHS USA_R34_NE USA_R34_SE USA_R34_SW USA_R34_NW USA_R50_NE USA_R50_SE USA_R50_SW USA_R50_NW USA_R64_NE USA_R64_SE USA_R64_SW USA_R64_NW USA_POCI USA_ROCI USA_RMW USA_EYE TOKYO_LAT TOKYO_LON TOKYO_GRADE TOKYO_WIND TOKYO_PRES TOKYO_R50_DIR TOKYO_R50_LONG TOKYO_R50_SHORT TOKYO_R30_DIR TOKYO_R30_LONG TOKYO_R30_SHORT TOKYO_LAND CMA_LAT CMA_LON CMA_CAT CMA_WIND CMA_PRES HKO_LAT HKO_LON HKO_CAT HKO_WIND HKO_PRES NEWDELHI_LAT NEWDELHI_LON NEWDELHI_GRADE NEWDELHI_WIND NEWDELHI_PRES NEWDELHI_CI NEWDELHI_DP NEWDELHI_POCI REUNION_LAT REUNION_LON REUNION_TYPE REUNION_WIND REUNION_PRES REUNION_TNUM REUNION_CI REUNION_RMW REUNION_R34_NE REUNION_R34_SE REUNION_R34_SW REUNION_R34_NW REUNION_R50_NE REUNION_R50_SE REUNION_R50_SW REUNION_R50_NW REUNION_R64_NE REUNION_R64_SE REUNION_R64_SW REUNION_R64_NW BOM_LAT BOM_LON BOM_TYPE BOM_WIND BOM_PRES BOM_TNUM BOM_CI BOM_RMW BOM_R34_NE BOM_R34_SE BOM_R34_SW BOM_R34_NW BOM_R50_NE BOM_R50_SE BOM_R50_SW BOM_R50_NW BOM_R64_NE BOM_R64_SE BOM_R64_SW BOM_R64_NW BOM_ROCI BOM_POCI BOM_EYE BOM_POS_METHOD BOM_PRES_METHOD NADI_LAT NADI_LON NADI_CAT NADI_WIND NADI_PRES WELLINGTON_LAT WELLINGTON_LON WELLINGTON_WIND WELLINGTON_PRES DS824_LAT DS824_LON DS824_STAGE DS824_WIND DS824_PRES TD9636_LAT TD9636_LON TD9636_STAGE TD9636_WIND TD9636_PRES TD9635_LAT TD9635_LON TD9635_WIND TD9635_PRES TD9635_ROCI NEUMANN_LAT NEUMANN_LON NEUMANN_CLASS NEUMANN_WIND NEUMANN_PRES MLC_LAT MLC_LON MLC_CLASS MLC_WIND MLC_PRES USA_GUST BOM_GUST BOM_GUST_PER REUNION_GUST REUNION_GUST_PER USA_SEAHGT USA_SEARAD_NE USA_SEARAD_SE USA_SEARAD_SW USA_SEARAD_NW STORM_SPEED STORM_DIR
1930046N21120 1930 13 WP MM NOT_NAMED 1930-02-14 22:00:00 NR 20.9000 120.100 main 127 59 __________O___ -1 20.9000 120.100 2 31 64
1930046N21120 1930 13 WP MM NOT_NAMED 1930-02-15 00:00:00 NR 21.3524 121.076 main 59 60 __________P___ -1 21.3524 121.076 2 31 64
1930046N21120 1930 13 WP MM NOT_NAMED 1930-02-15 03:00:00 NR 22.0188 122.549 main 164 166 __________P___ -1 22.0188 122.549 2 30 64
1930046N21120 1930 13 WP MM NOT_NAMED 1930-02-15 06:00:00 NR 22.6675 124.028 main 269 280 __________P___ -1 22.6675 124.028 2 30 65
1930046N21120 1930 13 WP MM NOT_NAMED 1930-02-15 09:00:00 NR 23.2956 125.507 main 389 399 __________P___ -1 23.2956 125.507 2 30 65
1930046N21120 1930 13 WP MM NOT_NAMED 1930-02-15 10:00:00 NR 23.5000 126.000 main 430 430 __________O___ -1 23.5000 126.000 2 30 66
1930046N21120 1930 13 WP MM NOT_NAMED 1930-02-15 12:00:00 NR 23.9008 126.983 main 520 527 __________P___ -1 23.9008 126.983 2 29 66
1930046N21120 1930 13 WP MM NOT_NAMED 1930-02-15 15:00:00 NR 24.4793 128.438 main 648 658 __________P___ -1 24.4793 128.438 2 28 67
1930046N21120 1930 13 WP MM NOT_NAMED 1930-02-15 18:00:00 NR 25.0263 129.845 main 675 614 __________P___ -1 25.0263 129.845 2 27 67
1930046N21120 1930 13 WP MM NOT_NAMED 1930-02-15 21:00:00 NR 25.5379 131.178 main 615 596 __________P___ -1 25.5379 131.178 2 26 67
1930046N21120 1930 13 WP MM NOT_NAMED 1930-02-15 22:00:00 NR 25.7000 131.600 main 598 579 __________O___ -1 25.7000 131.600 4 24 67
1930046N21120 1930 13 WP MM NOT_NAMED 1930-02-16 00:00:00 NR 26.0097 132.403 main 582 570 __________P___ -1 26.0097 132.403 4 23 67
1930046N21120 1930 13 WP MM NOT_NAMED 1930-02-16 03:00:00 NR 26.4464 133.529 main 581 576 __________P___ -1 26.4464 133.529 4 21 67
1930046N21120 1930 13 WP MM NOT_NAMED 1930-02-16 06:00:00 NR 26.8613 134.596 main 590 591 __________P___ -1 26.8613 134.596 4 21 67
1930046N21120 1930 13 WP MM NOT_NAMED 1930-02-16 09:00:00 NR 27.2657 135.646 main 611 618 __________P___ -1 27.2657 135.646 4 20 67
1930046N21120 1930 13 WP MM NOT_NAMED 1930-02-16 10:00:00 NR 27.4000 136.000 main 630 630 __________O___ -1 27.4000 136.000 4 21 67
1930046N21120 1930 13 WP MM NOT_NAMED 1930-02-16 12:00:00 NR 27.6693 136.719 main 641 621 __________P___ -1 27.6693 136.719 4 21 67
1930046N21120 1930 13 WP MM NOT_NAMED 1930-02-16 15:00:00 NR 28.0735 137.826 main 621 616 __________P___ -1 28.0735 137.826 4 21 68
1930046N21120 1930 13 WP MM NOT_NAMED 1930-02-16 18:00:00 NR 28.4749 138.960 main 625 625 __________P___ -1 28.4749 138.960 4 22 68
1930046N21120 1930 13 WP MM NOT_NAMED 1930-02-16 21:00:00 NR 28.8702 140.113 main 647 642 __________P___ -1 28.8702 140.113 4 22 69
1930046N21120 1930 13 WP MM NOT_NAMED 1930-02-16 22:00:00 NR 29.0000 140.500 main 644 __________O___ -1 29.0000 140.500 4 22 69

Digital Typhoon Data and Search

About IBTrACS Database

This database is a web-friendly format of International Best Track Archive for Climate Stewardship (IBTrACS), a global best track data archive curated by NOAA dating back to 1842.

Updated: 2021-10-08